createdAt,value
2022-09-29T00:01:02.421Z,8.00
2022-09-29T00:03:29.587Z,7.90
2022-09-29T00:05:56.805Z,7.90
2022-09-29T00:08:30.092Z,7.90
2022-09-29T00:10:57.422Z,7.80
2022-09-29T00:13:24.169Z,7.80
2022-09-29T00:16:02.576Z,7.62
2022-09-29T00:18:31.662Z,7.56
2022-09-29T00:21:00.500Z,7.60
2022-09-29T00:23:29.684Z,7.60
2022-09-29T00:26:24.552Z,7.60
2022-09-29T00:28:57.771Z,7.60
2022-09-29T00:31:31.254Z,7.60
2022-09-29T00:33:58.505Z,7.60
2022-09-29T00:36:30.056Z,7.60
2022-09-29T00:38:58.135Z,7.50
2022-09-29T00:41:29.415Z,7.40
2022-09-29T00:44:02.079Z,7.50
2022-09-29T00:46:49.597Z,7.50
2022-09-29T00:49:26.504Z,7.50
2022-09-29T00:52:03.044Z,7.40
2022-09-29T00:54:38.272Z,7.30
2022-09-29T00:57:09.658Z,7.30
2022-09-29T00:59:48.236Z,7.34
2022-09-29T01:02:18.380Z,7.30
2022-09-29T01:04:47.837Z,7.30
2022-09-29T01:07:15.000Z,7.40
2022-09-29T01:09:44.160Z,7.40
2022-09-29T01:12:10.638Z,7.50
2022-09-29T01:14:39.598Z,7.50
2022-09-29T01:17:06.672Z,7.50
2022-09-29T01:20:13.291Z,7.50
2022-09-29T01:23:23.293Z,7.42
2022-09-29T01:26:33.506Z,7.40
2022-09-29T01:29:40.353Z,7.44
2022-09-29T01:32:37.168Z,7.50
2022-09-29T01:35:21.220Z,7.50
2022-09-29T01:38:14.985Z,7.50
2022-09-29T01:40:57.445Z,7.50
2022-09-29T01:43:42.452Z,7.50
2022-09-29T01:46:18.528Z,7.60
2022-09-29T01:48:51.834Z,7.52
2022-09-29T01:51:28.009Z,7.50
2022-09-29T01:54:03.005Z,7.50
2022-09-29T01:56:39.005Z,7.50
2022-09-29T01:59:18.229Z,7.50
2022-09-29T02:01:50.283Z,7.50
2022-09-29T02:04:33.585Z,7.50
2022-09-29T02:07:11.996Z,7.50
2022-09-29T02:09:45.315Z,7.50
2022-09-29T02:12:21.018Z,7.50
2022-09-29T02:14:48.933Z,7.50
2022-09-29T02:17:24.152Z,7.40
2022-09-29T02:19:52.753Z,7.40
2022-09-29T02:22:20.368Z,7.30
2022-09-29T02:24:47.900Z,7.30
2022-09-29T02:27:14.569Z,7.30
2022-09-29T02:29:41.973Z,7.30
2022-09-29T02:32:09.934Z,7.38
2022-09-29T02:34:43.578Z,7.30
2022-09-29T02:37:27.466Z,7.30
2022-09-29T02:40:21.727Z,7.32
2022-09-29T02:43:10.006Z,7.28
2022-09-29T02:46:10.818Z,7.18
2022-09-29T02:48:40.090Z,7.20
2022-09-29T02:51:23.805Z,7.30
2022-09-29T02:54:13.405Z,7.40
2022-09-29T02:57:09.474Z,7.48
2022-09-29T02:59:55.644Z,7.48
2022-09-29T03:02:27.480Z,7.44
2022-09-29T03:04:55.049Z,7.50
2022-09-29T03:07:21.675Z,7.48
2022-09-29T03:09:48.193Z,7.50
2022-09-29T03:12:14.689Z,7.50
2022-09-29T03:14:41.324Z,7.50
2022-09-29T03:17:07.874Z,7.40
2022-09-29T03:19:34.312Z,7.40
2022-09-29T03:22:00.801Z,7.40
2022-09-29T03:24:27.275Z,7.40
2022-09-29T03:26:53.855Z,7.50
2022-09-29T03:29:20.387Z,7.58
2022-09-29T03:31:46.943Z,7.60
2022-09-29T03:34:13.438Z,7.60
2022-09-29T03:36:41.486Z,7.60
2022-09-29T03:39:08.841Z,7.54
2022-09-29T03:41:35.349Z,7.60
2022-09-29T03:44:02.222Z,7.60
2022-09-29T03:46:28.628Z,7.70
2022-09-29T03:48:55.246Z,7.74
2022-09-29T03:51:21.729Z,7.80
2022-09-29T03:53:48.133Z,7.80
2022-09-29T03:56:15.280Z,7.90
2022-09-29T03:58:41.891Z,7.80
2022-09-29T04:01:08.713Z,7.70
2022-09-29T04:03:35.277Z,7.60
2022-09-29T04:06:01.900Z,7.60
2022-09-29T04:08:28.534Z,7.60
2022-09-29T04:10:54.993Z,7.60
2022-09-29T04:13:24.404Z,7.60
2022-09-29T04:15:51.017Z,7.60
2022-09-29T04:18:17.740Z,7.60
2022-09-29T04:20:44.224Z,7.70
2022-09-29T04:23:10.720Z,7.60
2022-09-29T04:25:37.163Z,7.70
2022-09-29T04:28:03.792Z,7.60
2022-09-29T04:30:30.243Z,7.50
2022-09-29T04:32:56.743Z,7.40
2022-09-29T04:35:23.339Z,7.40
2022-09-29T04:37:49.744Z,7.50
2022-09-29T04:40:17.180Z,7.52
2022-09-29T04:42:43.731Z,7.60
2022-09-29T04:45:10.871Z,7.50
2022-09-29T04:47:37.341Z,7.40
2022-09-29T04:50:04.166Z,7.40
2022-09-29T04:52:30.676Z,7.50
2022-09-29T04:54:57.143Z,7.44
2022-09-29T04:57:23.565Z,7.40
2022-09-29T04:59:51.873Z,7.40
2022-09-29T05:02:19.529Z,7.50
2022-09-29T05:04:47.596Z,7.48
2022-09-29T05:07:15.124Z,7.40
2022-09-29T05:09:41.688Z,7.44
2022-09-29T05:12:08.157Z,7.48
2022-09-29T05:14:35.064Z,7.50
2022-09-29T05:17:01.714Z,7.60
2022-09-29T05:19:28.393Z,7.60
2022-09-29T05:21:54.836Z,7.70
2022-09-29T05:24:21.251Z,7.74
2022-09-29T05:26:47.697Z,7.80
2022-09-29T05:29:14.176Z,7.80
2022-09-29T05:31:40.859Z,7.80
2022-09-29T05:34:07.388Z,7.90
2022-09-29T05:36:33.925Z,7.82
2022-09-29T05:39:00.382Z,7.80
2022-09-29T05:41:26.936Z,7.90
2022-09-29T05:43:55.552Z,7.90
2022-09-29T05:46:23.431Z,8.00
2022-09-29T05:48:53.422Z,8.10
2022-09-29T05:51:23.505Z,8.20
2022-09-29T05:53:51.809Z,8.20
2022-09-29T05:56:22.527Z,8.30
2022-09-29T05:58:49.553Z,8.40
2022-09-29T06:01:26.006Z,8.40
2022-09-29T06:03:56.805Z,8.40
2022-09-29T06:06:26.922Z,8.50
2022-09-29T06:08:54.931Z,8.50
2022-09-29T06:11:31.597Z,8.50
2022-09-29T06:13:58.988Z,8.50
2022-09-29T06:16:28.868Z,8.50
2022-09-29T06:18:56.561Z,8.50
2022-09-29T06:21:26.661Z,8.50
2022-09-29T06:23:57.414Z,8.60
2022-09-29T06:26:26.586Z,8.60
2022-09-29T06:28:54.768Z,8.70
2022-09-29T06:31:26.255Z,8.66
2022-09-29T06:33:53.287Z,8.64
2022-09-29T06:36:44.847Z,8.70
2022-09-29T06:39:14.727Z,8.70
2022-09-29T06:41:44.457Z,8.72
2022-09-29T06:44:11.052Z,8.84
2022-09-29T06:46:37.733Z,8.90
2022-09-29T06:49:04.491Z,9.00
2022-09-29T06:51:41.914Z,9.10
2022-09-29T06:54:16.083Z,9.10
2022-09-29T06:56:43.055Z,9.20
2022-09-29T06:59:09.739Z,9.20
2022-09-29T07:01:36.325Z,9.30
2022-09-29T07:04:03.120Z,9.40
2022-09-29T07:06:30.632Z,9.50
2022-09-29T07:08:59.133Z,9.50
2022-09-29T07:11:26.988Z,9.60
2022-09-29T07:13:55.309Z,9.60
2022-09-29T07:16:24.209Z,9.70
2022-09-29T07:18:52.203Z,9.80
2022-09-29T07:21:19.750Z,9.90
2022-09-29T07:23:47.859Z,10.00
2022-09-29T07:26:16.697Z,10.10
2022-09-29T07:28:43.979Z,10.16
2022-09-29T07:31:18.867Z,10.20
2022-09-29T07:33:48.458Z,10.30
2022-09-29T07:36:17.874Z,10.40
2022-09-29T07:38:50.168Z,10.50
2022-09-29T07:41:19.732Z,10.60
2022-09-29T07:43:46.606Z,10.80
2022-09-29T07:46:14.028Z,10.90
2022-09-29T07:48:41.108Z,11.02
2022-09-29T07:51:12.627Z,11.20
2022-09-29T07:53:39.839Z,11.30
2022-09-29T07:56:09.976Z,11.40
2022-09-29T07:58:37.977Z,11.50
2022-09-29T08:01:10.469Z,11.60
2022-09-29T08:03:39.191Z,11.66
2022-09-29T08:06:07.809Z,11.70
2022-09-29T08:08:37.608Z,11.72
2022-09-29T08:11:29.407Z,11.80
2022-09-29T08:13:57.955Z,11.82
2022-09-29T08:16:24.544Z,11.84
2022-09-29T08:18:51.045Z,11.80
2022-09-29T08:21:17.758Z,11.70
2022-09-29T08:23:44.261Z,11.64
2022-09-29T08:26:15.880Z,11.60
2022-09-29T08:28:44.194Z,11.50
2022-09-29T08:31:21.425Z,11.50
2022-09-29T08:33:52.678Z,11.40
2022-09-29T08:36:20.815Z,11.40
2022-09-29T08:38:51.108Z,11.30
2022-09-29T08:41:57.777Z,11.24
2022-09-29T08:44:39.626Z,11.20
2022-09-29T08:47:15.718Z,11.18
2022-09-29T08:50:00.065Z,11.20
2022-09-29T08:52:44.983Z,11.20
2022-09-29T08:55:21.392Z,11.10
2022-09-29T08:57:57.379Z,11.10
2022-09-29T09:00:42.990Z,11.10
2022-09-29T09:03:26.299Z,11.06
2022-09-29T09:06:22.108Z,11.00
2022-09-29T09:09:04.680Z,10.90
2022-09-29T09:12:03.976Z,10.90
2022-09-29T09:15:00.826Z,10.80
2022-09-29T09:17:57.667Z,10.78
2022-09-29T09:20:36.798Z,10.70
2022-09-29T09:23:21.676Z,10.62
2022-09-29T09:25:54.852Z,10.60
2022-09-29T09:28:43.718Z,10.60
2022-09-29T09:31:21.809Z,10.64
2022-09-29T09:34:06.183Z,10.66
2022-09-29T09:36:45.752Z,10.70
2022-09-29T09:39:21.129Z,10.80
2022-09-29T09:41:53.023Z,10.72
2022-09-29T09:44:28.157Z,10.80
2022-09-29T09:47:04.952Z,10.90
2022-09-29T09:49:40.857Z,10.90
2022-09-29T09:52:41.596Z,11.00
2022-09-29T09:55:19.011Z,11.10
2022-09-29T09:58:05.991Z,11.20
2022-09-29T10:00:42.931Z,11.30
2022-09-29T10:03:10.841Z,11.34
2022-09-29T10:05:42.317Z,11.40
2022-09-29T10:08:29.560Z,11.54
2022-09-29T10:10:59.554Z,11.70
2022-09-29T10:13:30.642Z,11.88
2022-09-29T10:16:07.952Z,12.00
2022-09-29T10:18:43.972Z,12.20
2022-09-29T10:21:29.058Z,12.30
2022-09-29T10:23:58.268Z,12.50
2022-09-29T10:26:33.225Z,12.66
2022-09-29T10:29:54.730Z,12.82
2022-09-29T10:32:36.985Z,13.12
2022-09-29T10:35:29.799Z,13.30
2022-09-29T10:38:09.969Z,13.40
2022-09-29T10:40:36.774Z,13.50
2022-09-29T10:43:25.271Z,13.60
2022-09-29T10:45:53.901Z,13.70
2022-09-29T10:48:20.387Z,13.80
2022-09-29T10:50:55.045Z,13.90
2022-09-29T10:53:40.596Z,14.00
2022-09-29T10:56:22.159Z,14.10
2022-09-29T10:59:04.419Z,14.18
2022-09-29T11:01:42.336Z,14.30
2022-09-29T11:04:34.050Z,14.40
2022-09-29T11:07:12.841Z,14.64
2022-09-29T11:09:43.226Z,14.80
2022-09-29T11:12:39.023Z,14.90
2022-09-29T11:15:28.676Z,15.00
2022-09-29T11:17:56.938Z,15.10
2022-09-29T11:20:32.497Z,15.10
2022-09-29T11:23:22.816Z,15.00
2022-09-29T11:26:33.984Z,14.90
2022-09-29T11:29:29.063Z,14.78
2022-09-29T11:32:25.099Z,14.68
2022-09-29T11:35:16.228Z,14.60
2022-09-29T11:38:39.014Z,14.60
2022-09-29T11:41:44.741Z,14.60
2022-09-29T11:44:58.292Z,14.62
2022-09-29T11:47:52.665Z,14.70
2022-09-29T11:50:37.659Z,14.80
2022-09-29T11:53:31.579Z,14.80
2022-09-29T11:56:17.371Z,14.80
2022-09-29T11:59:14.002Z,14.80
2022-09-29T12:02:13.475Z,14.80
2022-09-29T12:05:07.832Z,14.80
2022-09-29T12:08:24.788Z,15.00
2022-09-29T12:11:44.423Z,15.02
2022-09-29T12:14:20.813Z,15.00
2022-09-29T12:17:00.198Z,14.90
2022-09-29T12:19:31.768Z,14.80
2022-09-29T12:22:03.162Z,14.80
2022-09-29T12:24:42.922Z,14.80
2022-09-29T12:27:34.373Z,14.80
2022-09-29T12:30:18.464Z,14.70
2022-09-29T12:33:14.809Z,14.60
2022-09-29T12:35:55.929Z,14.50
2022-09-29T12:38:35.215Z,14.40
2022-09-29T12:41:22.064Z,14.40
2022-09-29T12:43:59.146Z,14.34
2022-09-29T12:46:35.804Z,14.32
2022-09-29T12:49:19.829Z,14.30
2022-09-29T12:51:49.560Z,14.30
2022-09-29T12:54:40.068Z,14.20
2022-09-29T12:57:32.684Z,14.20
2022-09-29T13:00:07.993Z,14.40
2022-09-29T13:03:15.159Z,14.40
2022-09-29T13:05:55.367Z,14.50
2022-09-29T13:08:53.467Z,14.50
2022-09-29T13:11:43.122Z,14.70
2022-09-29T13:14:30.794Z,14.70
2022-09-29T13:17:26.474Z,14.70
2022-09-29T13:20:34.177Z,14.70
2022-09-29T13:23:34.301Z,14.74
2022-09-29T13:26:48.817Z,14.60
2022-09-29T13:29:23.827Z,14.50
2022-09-29T13:31:55.350Z,14.60
2022-09-29T13:34:37.356Z,14.70
2022-09-29T13:37:15.105Z,14.84
2022-09-29T13:39:51.657Z,15.02
2022-09-29T13:42:45.285Z,15.28
2022-09-29T13:45:20.803Z,15.56
2022-09-29T13:47:56.960Z,15.80
2022-09-29T13:50:48.012Z,16.10
2022-09-29T13:53:26.953Z,16.30
2022-09-29T13:56:02.600Z,16.46
2022-09-29T13:58:35.197Z,16.40
2022-09-29T14:01:08.991Z,16.40
2022-09-29T14:03:40.543Z,16.50
2022-09-29T14:09:17.558Z,16.40
2022-09-29T14:11:55.663Z,16.40
2022-09-29T14:14:31.829Z,16.40
2022-09-29T14:17:01.741Z,16.40
2022-09-29T14:19:46.136Z,16.34
2022-09-29T14:22:30.924Z,16.30
2022-09-29T14:25:40.592Z,16.40
2022-09-29T14:28:13.735Z,16.52
2022-09-29T14:30:49.786Z,16.70
2022-09-29T14:33:41.230Z,16.90
2022-09-29T14:36:15.772Z,17.00
2022-09-29T14:39:14.306Z,17.14
2022-09-29T14:41:44.762Z,17.30
2022-09-29T14:44:26.319Z,17.40
2022-09-29T14:47:47.087Z,17.50
2022-09-29T14:51:00.462Z,17.52
2022-09-29T14:54:06.881Z,17.60
2022-09-29T14:56:57.353Z,17.60
2022-09-29T14:59:53.664Z,17.50
2022-09-29T15:02:30.743Z,17.50
2022-09-29T15:04:58.354Z,17.40
2022-09-29T15:07:28.263Z,17.26
2022-09-29T15:09:59.962Z,16.98
2022-09-29T15:12:31.687Z,16.70
2022-09-29T15:15:01.868Z,16.48
2022-09-29T15:18:01.184Z,16.24
2022-09-29T15:20:52.318Z,16.00
2022-09-29T15:23:48.500Z,15.90
2022-09-29T15:26:17.841Z,15.80
2022-09-29T15:28:45.495Z,15.68
2022-09-29T15:31:18.894Z,15.52
2022-09-29T15:33:47.628Z,15.40
2022-09-29T15:36:35.627Z,15.30
2022-09-29T15:39:33.692Z,15.30
2022-09-29T15:42:24.061Z,15.28
2022-09-29T15:45:01.806Z,15.20
2022-09-29T15:47:39.492Z,15.20
2022-09-29T15:50:22.601Z,15.00
2022-09-29T15:52:50.515Z,14.90
2022-09-29T15:55:24.882Z,14.78
2022-09-29T15:57:58.229Z,14.60
2022-09-29T16:00:26.761Z,14.44
2022-09-29T16:03:17.286Z,14.30
2022-09-29T16:05:58.768Z,14.10
2022-09-29T16:08:29.980Z,13.94
2022-09-29T16:11:16.186Z,13.90
2022-09-29T16:13:54.663Z,13.80
2022-09-29T16:16:30.084Z,13.70
2022-09-29T16:19:07.251Z,13.60
2022-09-29T16:21:37.646Z,13.40
2022-09-29T16:24:19.574Z,13.20
2022-09-29T16:26:53.761Z,13.00
2022-09-29T16:29:20.121Z,12.80
2022-09-29T16:31:49.138Z,12.60
2022-09-29T16:34:21.993Z,12.40
2022-09-29T16:37:14.788Z,12.20
2022-09-29T16:39:48.213Z,12.00
2022-09-29T16:42:21.524Z,11.80
2022-09-29T16:44:52.051Z,11.64
2022-09-29T16:47:27.111Z,11.50
2022-09-29T16:49:56.365Z,11.30
2022-09-29T16:52:31.273Z,11.20
2022-09-29T16:55:30.932Z,11.00
2022-09-29T16:58:01.832Z,10.82
2022-09-29T17:00:30.257Z,10.70
2022-09-29T17:02:57.773Z,10.60
2022-09-29T17:05:25.892Z,10.42
2022-09-29T17:08:01.561Z,10.32
2022-09-29T17:10:28.957Z,10.26
2022-09-29T17:12:55.522Z,10.20
2022-09-29T17:15:23.112Z,10.00
2022-09-29T17:17:50.840Z,9.90
2022-09-29T17:20:22.096Z,9.80
2022-09-29T17:22:51.656Z,9.80
2022-09-29T17:25:18.152Z,9.70
2022-09-29T17:28:03.235Z,9.62
2022-09-29T17:30:29.821Z,9.60
2022-09-29T17:32:58.577Z,9.50
2022-09-29T17:35:51.574Z,9.50
2022-09-29T17:38:21.067Z,9.40
2022-09-29T17:40:55.458Z,9.30
2022-09-29T17:43:23.392Z,9.20
2022-09-29T17:45:51.890Z,9.20
2022-09-29T17:48:20.865Z,9.10
2022-09-29T17:50:51.257Z,9.10
2022-09-29T17:53:19.075Z,9.00
2022-09-29T17:55:49.774Z,8.82
2022-09-29T17:58:19.404Z,8.80
2022-09-29T18:00:52.622Z,8.80
2022-09-29T18:03:21.549Z,8.70
2022-09-29T18:06:00.104Z,8.60
2022-09-29T18:08:29.262Z,8.60
2022-09-29T18:11:00.692Z,8.60
2022-09-29T18:13:31.234Z,8.60
2022-09-29T18:16:02.046Z,8.60
2022-09-29T18:18:28.712Z,8.60
2022-09-29T18:20:55.341Z,8.50
2022-09-29T18:23:23.999Z,8.50
2022-09-29T18:25:52.458Z,8.44
2022-09-29T18:28:20.462Z,8.40
2022-09-29T18:31:02.004Z,8.30
2022-09-29T18:33:29.076Z,8.30
2022-09-29T18:35:55.608Z,8.12
2022-09-29T18:38:22.557Z,8.00
2022-09-29T18:40:54.110Z,8.00
2022-09-29T18:43:25.510Z,8.02
2022-09-29T18:45:54.828Z,8.10
2022-09-29T18:48:22.027Z,8.10
2022-09-29T18:50:51.904Z,8.00
2022-09-29T18:53:21.494Z,7.98
2022-09-29T18:55:52.345Z,7.90
2022-09-29T18:58:21.165Z,7.80
2022-09-29T19:00:56.504Z,7.70
2022-09-29T19:03:27.537Z,7.64
2022-09-29T19:05:55.897Z,7.60
2022-09-29T19:08:22.999Z,7.50
2022-09-29T19:10:57.673Z,7.48
2022-09-29T19:13:24.477Z,7.40
2022-09-29T19:15:55.596Z,7.40
2022-09-29T19:18:24.269Z,7.32
2022-09-29T19:20:54.439Z,7.30
2022-09-29T19:23:22.633Z,7.18
2022-09-29T19:25:53.822Z,7.10
2022-09-29T19:28:23.281Z,7.00
2022-09-29T19:30:50.806Z,7.00
2022-09-29T19:33:21.752Z,7.00
2022-09-29T19:35:54.773Z,6.90
2022-09-29T19:38:24.365Z,6.80
2022-09-29T19:40:51.769Z,6.80
2022-09-29T19:43:21.385Z,6.70
2022-09-29T19:45:48.368Z,6.70
2022-09-29T19:48:20.020Z,6.70
2022-09-29T19:51:06.754Z,6.60
2022-09-29T19:53:35.514Z,6.60
2022-09-29T19:56:08.166Z,6.60
2022-09-29T19:58:38.284Z,6.60
2022-09-29T20:01:08.216Z,6.60
2022-09-29T20:03:34.660Z,6.60
2022-09-29T20:06:06.402Z,6.60
2022-09-29T20:08:33.987Z,6.60
2022-09-29T20:11:10.251Z,6.60
2022-09-29T20:13:37.534Z,6.50
2022-09-29T20:16:05.940Z,6.50
2022-09-29T20:18:37.410Z,6.50
2022-09-29T20:21:11.821Z,6.40
2022-09-29T20:23:39.338Z,6.30
2022-09-29T20:26:10.347Z,6.22
2022-09-29T20:28:37.919Z,6.10
2022-09-29T20:31:07.260Z,6.00
2022-09-29T20:33:36.241Z,6.00
2022-09-29T20:36:05.068Z,5.92
2022-09-29T20:38:34.490Z,5.96
2022-09-29T20:41:02.184Z,5.90
2022-09-29T20:43:28.702Z,5.90
2022-09-29T20:46:04.029Z,5.80
2022-09-29T20:48:32.914Z,5.70
2022-09-29T20:51:01.126Z,5.70
2022-09-29T20:53:34.213Z,5.60
2022-09-29T20:56:16.616Z,5.64
2022-09-29T20:58:45.475Z,5.70
2022-09-29T21:01:25.898Z,5.70
2022-09-29T21:03:55.849Z,5.74
2022-09-29T21:06:26.409Z,5.80
2022-09-29T21:08:52.990Z,5.78
2022-09-29T21:11:20.486Z,5.76
2022-09-29T21:13:48.945Z,5.72
2022-09-29T21:16:15.546Z,5.70
2022-09-29T21:18:42.069Z,5.60
2022-09-29T21:21:08.910Z,5.60
2022-09-29T21:23:39.700Z,5.68
2022-09-29T21:26:14.435Z,5.62
2022-09-29T21:28:50.630Z,5.70
2022-09-29T21:31:20.778Z,5.70
2022-09-29T21:33:54.453Z,5.70
2022-09-29T21:36:23.808Z,5.76
2022-09-29T21:38:51.674Z,5.80
2022-09-29T21:41:26.377Z,5.78
2022-09-29T21:44:00.708Z,5.70
2022-09-29T21:46:30.674Z,5.70
2022-09-29T21:49:04.053Z,5.70
2022-09-29T21:51:37.858Z,5.60
2022-09-29T21:54:07.145Z,5.60
2022-09-29T21:56:40.468Z,5.60
2022-09-29T21:59:08.821Z,5.60
2022-09-29T22:01:37.504Z,5.50
2022-09-29T22:04:04.119Z,5.50
2022-09-29T22:06:33.507Z,5.40
2022-09-29T22:09:01.069Z,5.40
2022-09-29T22:11:38.914Z,5.40
2022-09-29T22:14:06.301Z,5.40
2022-09-29T22:16:35.304Z,5.30
2022-09-29T22:19:23.029Z,5.30
2022-09-29T22:21:51.037Z,5.30
2022-09-29T22:24:17.515Z,5.28
2022-09-29T22:26:43.942Z,5.30
2022-09-29T22:29:10.406Z,5.30
2022-09-29T22:31:40.431Z,5.30
2022-09-29T22:34:08.329Z,5.30
2022-09-29T22:36:35.192Z,5.30
2022-09-29T22:39:04.469Z,5.24
2022-09-29T22:41:31.483Z,5.20
2022-09-29T22:44:00.130Z,5.20
2022-09-29T22:46:29.841Z,5.12
2022-09-29T22:48:57.601Z,5.10
2022-09-29T22:51:24.388Z,5.10
2022-09-29T22:53:51.680Z,5.04
2022-09-29T22:56:22.097Z,5.00
2022-09-29T22:58:49.570Z,4.98
2022-09-29T23:01:19.744Z,4.90
2022-09-29T23:03:47.316Z,4.90
2022-09-29T23:06:14.823Z,4.90
2022-09-29T23:08:42.387Z,4.90
2022-09-29T23:11:17.489Z,4.90
2022-09-29T23:13:45.003Z,4.90
2022-09-29T23:16:14.308Z,4.90
2022-09-29T23:18:44.811Z,4.86
2022-09-29T23:21:19.035Z,4.86
2022-09-29T23:23:51.338Z,4.90
2022-09-29T23:26:18.156Z,4.90
2022-09-29T23:28:44.780Z,5.00
2022-09-29T23:31:12.060Z,5.00
2022-09-29T23:33:38.605Z,5.00
2022-09-29T23:36:15.261Z,4.90
2022-09-29T23:39:03.009Z,4.90
2022-09-29T23:41:31.452Z,4.90
2022-09-29T23:44:05.254Z,4.90
2022-09-29T23:46:36.949Z,4.90
2022-09-29T23:49:13.131Z,5.00
2022-09-29T23:51:44.940Z,5.00
2022-09-29T23:54:14.222Z,5.00
2022-09-29T23:56:40.757Z,5.10
2022-09-29T23:59:08.183Z,5.10
